Aérodrome :
LOGIN :

S'inscrire | Disclaimer

   EN    FR    IT 

 










Légende :    VFR   VFR Marginal   IFR   IFR Intensif   IFR Très Intensif
Visi : 
Plafond : 
>= 8 km
>= 3000ft
5 à 8 km
1000 à 3000 ft
1500m à 5 km
500 à 1000 ft
800 à 1500m
200 à 500 ft
< 800m
< 200 ft
Symboles :   Orages  Brouillard  Fortes neiges  Fortes précipitations  Vent > 20 kt
SIGMETs :   Divers  Orages  Givrage  Turbulence  Onde Orograph.  Cendres Volcan.







- Altitude de l'aérodrome : 32 ft
- Code IATA : LKZ


EGUL - RAF Lakenheath

DERNIER METAR :
  • 181821Z AUTO 00000KT 5000 BR CLR M01/M01 A3045 RMK AO2 SLP315 $

METARs EXPIRÉS :
  • 181817Z AUTO 00000KT 2400 R24/1100 BR CLR M01/M01 A3045 RMK AO2 VIS 1600V2400 SLP315 $
  • 181808Z AUTO 00000KT 1800 R24/1000 BR CLR 00/00 A3045 RMK AO2 VIS 1800V5000 SLP315 $
  • 181656Z AUTO 20003KT 9999 CLR 01/01 A3044 RMK AO2 SLP312 T00140014 $
  • 181556Z AUTO 23004KT 9999 FEW190 02/02 A3042 RMK AO2 SLP305 T00160016 $

TAF AMD TAF EGUL
Valide du 18 à 18h jusqu'au 19 à 18h UTC


181821Z 1818/1918 26009KT 1800 BR FEW030 QNH3036INS
TEMPO 1818/1820 0800 FZFG 620001
BECMG 1819/1820 27006KT 0800 FZFG SCT005 BKN010 620002 QNH3050INS
BECMG 1906/1907 25006KT 0800 FG BKN006 QNH3051INS
BECMG 1909/1910 25009KT 4000 BR BKN008 QNH3053INS TX06/1913Z TNM01/1903Z
Pas de NOTAMs connus pour ce terrain.



MET'MAP, la Météo Aéronautique d'un coup d'oeil ! - Copyright ORBIFLY Décembre 2007 - Disclaimer

ORBIFLY MET'MAP TEAM :

Programmation & Développement : Alexandra Zaïnal
Conception & Développement : Baudouin d'Aumeries
Co-Programmation & Développement : Marc-Olivier Méhu
Soutien technique & logistique : Manuel Goepfert

Contact : metmap@orbifly.com




SOURCES & CREDITS :

   NOAA